Time;durP1;ratioP1;P1;durP2;ratioP2;P2;SDS_P1;SDS_P2;PMS_P1;PMS_P2;Temp;Humidity;BMP_temperature;BMP_pressure;BME280_temperature;BME280_humidity;BME280_pressure;Samples;Min_cycle;Max_cycle;Signal;HPM_P1;HPM_P2
2023/10/24 00:01:50;;;;;;;8.53;5.70;;;9.80;99.90;;;;;;5032574;28;20944;-58
2023/10/24 00:04:16;;;;;;;10.70;5.67;;;9.80;99.90;;;;;;5023431;28;20999;-60
2023/10/24 00:06:43;;;;;;;6.17;5.60;;;9.80;99.90;;;;;;5012817;28;20448;-59
2023/10/24 00:09:10;;;;;;;6.90;5.43;;;9.80;99.90;;;;;;5012010;28;20542;-58
2023/10/24 00:11:36;;;;;;;8.13;5.77;;;9.80;99.90;;;;;;5005062;28;20440;-58
2023/10/24 00:14:03;;;;;;;5.83;5.33;;;9.80;99.90;;;;;;5018074;28;20466;-58
2023/10/24 00:16:31;;;;;;;5.53;5.03;;;9.80;99.90;;;;;;5020524;28;20447;-59
2023/10/24 00:18:57;;;;;;;5.87;5.03;;;9.80;99.90;;;;;;5011053;28;20517;-58
2023/10/24 00:21:24;;;;;;;7.47;5.50;;;9.80;99.90;;;;;;5011399;28;20463;-55
2023/10/24 00:23:52;;;;;;;6.40;5.10;;;9.80;99.90;;;;;;5011804;28;20513;-53
2023/10/24 00:26:19;;;;;;;7.90;5.60;;;9.80;99.90;;;;;;5012401;28;20447;-54
2023/10/24 00:28:45;;;;;;;7.07;5.20;;;9.80;99.90;;;;;;5009343;28;20487;-53
2023/10/24 00:31:12;;;;;;;6.07;5.47;;;9.80;99.90;;;;;;5019254;28;20526;-55
2023/10/24 00:33:41;;;;;;;7.73;5.77;;;9.80;99.90;;;;;;5011698;28;20451;-55
2023/10/24 00:36:07;;;;;;;7.33;5.80;;;9.80;99.90;;;;;;5011638;28;20448;-54
2023/10/24 00:38:34;;;;;;;6.27;5.67;;;9.80;99.90;;;;;;5010636;28;20512;-55
2023/10/24 00:41:00;;;;;;;10.40;6.97;;;9.80;99.90;;;;;;5012390;28;20454;-54
2023/10/24 00:43:27;;;;;;;8.97;6.17;;;9.90;99.90;;;;;;5010840;28;20459;-54
2023/10/24 00:45:54;;;;;;;7.50;5.43;;;9.80;99.90;;;;;;5013903;28;20537;-54
2023/10/24 00:48:20;;;;;;;6.07;5.40;;;9.90;99.90;;;;;;5011236;28;20487;-54
2023/10/24 00:50:48;;;;;;;7.97;5.33;;;9.80;99.90;;;;;;5011878;28;20436;-55
2023/10/24 00:53:15;;;;;;;10.47;5.57;;;9.90;99.90;;;;;;5011244;28;20459;-54
2023/10/24 00:55:42;;;;;;;5.97;5.37;;;9.90;99.90;;;;;;5011210;28;20463;-55
2023/10/24 00:58:10;;;;;;;6.97;5.90;;;9.90;99.90;;;;;;5012009;28;20447;-54
2023/10/24 01:00:37;;;;;;;7.07;5.60;;;9.90;99.90;;;;;;5010024;28;20464;-55
2023/10/24 01:03:05;;;;;;;7.63;5.80;;;10.00;99.90;;;;;;5008554;28;20518;-55
2023/10/24 01:05:32;;;;;;;9.57;6.03;;;10.00;99.90;;;;;;5021392;28;20465;-55
2023/10/24 01:08:00;;;;;;;10.87;7.33;;;10.00;99.90;;;;;;5016929;28;20511;-53
2023/10/24 01:10:27;;;;;;;9.47;6.60;;;10.00;99.90;;;;;;5010062;28;20468;-54
2023/10/24 01:12:54;;;;;;;6.57;5.90;;;10.10;99.90;;;;;;5011029;28;20470;-55
2023/10/24 01:15:20;;;;;;;20.87;6.43;;;10.10;99.90;;;;;;5008149;28;20460;-54
2023/10/24 01:17:50;;;;;;;11.93;6.03;;;10.10;99.90;;;;;;5019620;28;20490;-55
2023/10/24 01:20:17;;;;;;;6.17;5.57;;;10.10;99.90;;;;;;5012177;28;20526;-55
2023/10/24 01:22:46;;;;;;;7.60;6.00;;;10.10;99.90;;;;;;5011900;28;20506;-53
2023/10/24 01:25:14;;;;;;;7.73;6.23;;;10.20;99.90;;;;;;5010058;28;20870;-54
2023/10/24 01:27:43;;;;;;;7.87;6.33;;;10.20;99.90;;;;;;5004028;28;20573;-53
2023/10/24 01:30:11;;;;;;;7.60;6.10;;;10.30;99.90;;;;;;5009276;28;20490;-54
2023/10/24 01:32:37;;;;;;;8.83;6.03;;;10.30;99.90;;;;;;5011027;28;20573;-54
2023/10/24 01:35:05;;;;;;;8.20;6.50;;;10.30;99.90;;;;;;5011479;28;21022;-55
2023/10/24 01:37:31;;;;;;;15.27;7.60;;;10.30;99.90;;;;;;5011912;28;20446;-55
2023/10/24 01:39:59;;;;;;;8.70;6.70;;;10.30;99.90;;;;;;5010766;28;20895;-55
2023/10/24 01:42:26;;;;;;;9.00;6.73;;;10.30;99.90;;;;;;5011230;28;20961;-54
2023/10/24 01:44:52;;;;;;;11.60;6.40;;;10.30;99.90;;;;;;5008670;28;20961;-54
2023/10/24 01:47:19;;;;;;;9.80;6.43;;;10.30;99.90;;;;;;5010551;28;20832;-54
2023/10/24 01:49:45;;;;;;;7.97;6.07;;;10.40;99.90;;;;;;5014354;28;20471;-55
2023/10/24 01:52:12;;;;;;;9.70;6.33;;;10.40;99.90;;;;;;5021474;28;20525;-54
2023/10/24 01:54:39;;;;;;;8.17;6.50;;;10.40;99.90;;;;;;5006851;28;20459;-54
2023/10/24 01:57:06;;;;;;;9.03;5.67;;;10.40;99.90;;;;;;5014337;28;20526;-54
2023/10/24 01:59:33;;;;;;;12.10;5.83;;;10.40;99.90;;;;;;5014954;28;20561;-54
2023/10/24 02:01:59;;;;;;;15.37;6.43;;;10.40;99.90;;;;;;5015161;28;20506;-54
2023/10/24 02:04:26;;;;;;;8.50;6.07;;;10.50;99.90;;;;;;5015071;28;20447;-55
2023/10/24 02:06:53;;;;;;;11.50;5.70;;;10.50;99.90;;;;;;5013346;28;20490;-53
2023/10/24 02:09:19;;;;;;;8.13;6.17;;;10.60;99.90;;;;;;5012414;28;20522;-55
2023/10/24 02:11:46;;;;;;;10.70;6.03;;;10.60;99.90;;;;;;5012897;28;20511;-53
2023/10/24 02:14:14;;;;;;;11.53;6.50;;;10.60;99.90;;;;;;5014804;28;20486;-53
2023/10/24 02:16:40;;;;;;;13.17;6.80;;;10.60;99.90;;;;;;5015209;28;20444;-55
2023/10/24 02:19:07;;;;;;;12.33;6.40;;;10.60;99.90;;;;;;5015413;28;20525;-55
2023/10/24 02:21:33;;;;;;;7.93;4.90;;;10.60;99.90;;;;;;5013907;28;20463;-55
2023/10/24 02:24:00;;;;;;;7.67;5.57;;;10.70;99.90;;;;;;5014861;28;20479;-53
2023/10/24 02:26:26;;;;;;;6.80;5.30;;;10.70;99.90;;;;;;5010799;28;20463;-55
2023/10/24 02:28:53;;;;;;;11.93;6.37;;;10.70;99.90;;;;;;5014926;28;20487;-53
2023/10/24 02:31:21;;;;;;;8.67;5.60;;;10.70;99.90;;;;;;5014643;28;20474;-54
2023/10/24 02:33:47;;;;;;;6.27;5.17;;;10.70;99.90;;;;;;5034391;28;20509;-54
2023/10/24 02:36:15;;;;;;;11.23;6.20;;;10.70;99.90;;;;;;5016105;28;20471;-53
2023/10/24 02:38:42;;;;;;;11.53;6.73;;;10.70;99.90;;;;;;4995325;28;20465;-54
2023/10/24 02:41:09;;;;;;;13.93;6.63;;;10.70;99.90;;;;;;5007458;28;20470;-54
2023/10/24 02:43:36;;;;;;;9.00;5.60;;;10.70;99.90;;;;;;5012260;28;20492;-54
2023/10/24 02:46:04;;;;;;;11.93;6.17;;;10.70;99.90;;;;;;5012844;28;20561;-54
2023/10/24 02:48:32;;;;;;;13.17;7.30;;;10.70;99.90;;;;;;5016284;28;20480;-54
2023/10/24 02:50:59;;;;;;;13.77;5.57;;;10.70;99.90;;;;;;5033988;28;20509;-54
2023/10/24 02:53:26;;;;;;;9.43;5.33;;;10.70;99.90;;;;;;5034590;28;20485;-54
2023/10/24 02:55:53;;;;;;;12.57;6.47;;;10.80;99.90;;;;;;5022206;28;21226;-54
2023/10/24 02:58:20;;;;;;;16.70;6.53;;;10.80;99.90;;;;;;5013381;28;20455;-53
2023/10/24 03:00:46;;;;;;;11.03;6.03;;;10.80;99.90;;;;;;5014271;28;20858;-53
2023/10/24 03:03:13;;;;;;;10.70;6.13;;;10.80;99.90;;;;;;5012664;28;20885;-55
2023/10/24 03:05:41;;;;;;;11.53;6.30;;;10.80;99.90;;;;;;5021825;28;20707;-54
2023/10/24 03:08:08;;;;;;;8.60;5.80;;;10.80;99.90;;;;;;5014236;28;21124;-54
2023/10/24 03:10:39;;;;;;;13.33;6.40;;;10.80;99.90;;;;;;5013465;28;20892;-54
2023/10/24 03:13:06;;;;;;;12.73;7.20;;;10.80;99.90;;;;;;5009552;28;20455;-54
2023/10/24 03:15:33;;;;;;;11.53;6.20;;;10.80;99.90;;;;;;5016222;28;20448;-54
2023/10/24 03:18:00;;;;;;;11.90;6.30;;;10.80;99.90;;;;;;5016802;28;20542;-54
2023/10/24 03:20:26;;;;;;;12.23;5.93;;;10.80;99.90;;;;;;5027457;28;20439;-54
2023/10/24 03:22:54;;;;;;;12.13;5.90;;;10.80;99.90;;;;;;5021664;28;20448;-54
2023/10/24 03:25:21;;;;;;;15.20;6.20;;;10.80;99.90;;;;;;5018596;28;20542;-55
2023/10/24 03:27:47;;;;;;;9.80;5.80;;;10.80;99.90;;;;;;5017983;28;20490;-53
2023/10/24 03:30:14;;;;;;;11.00;5.73;;;10.80;99.90;;;;;;5015898;28;20532;-55
2023/10/24 03:32:41;;;;;;;10.40;5.90;;;10.80;99.90;;;;;;5012909;28;20474;-54
2023/10/24 03:35:08;;;;;;;10.87;5.73;;;10.80;99.90;;;;;;5013939;28;20930;-55
2023/10/24 03:37:34;;;;;;;7.50;6.13;;;10.80;99.90;;;;;;5013732;28;20444;-54
2023/10/24 03:40:03;;;;;;;13.13;6.87;;;10.80;99.90;;;;;;5012882;28;20467;-53
2023/10/24 03:42:30;;;;;;;12.63;6.70;;;10.80;99.90;;;;;;5013496;28;20452;-55
2023/10/24 03:44:57;;;;;;;13.13;5.87;;;10.80;99.90;;;;;;5012176;28;20459;-54
2023/10/24 03:47:23;;;;;;;21.67;6.60;;;10.80;99.90;;;;;;5012425;28;20507;-54
2023/10/24 03:49:50;;;;;;;8.20;5.90;;;10.80;99.90;;;;;;5033033;28;20521;-55
2023/10/24 03:52:17;;;;;;;10.67;6.50;;;10.80;99.90;;;;;;5025934;28;20463;-54
2023/10/24 03:54:44;;;;;;;10.83;6.20;;;10.80;99.90;;;;;;5004709;28;20958;-56
2023/10/24 03:57:12;;;;;;;7.63;5.67;;;10.80;99.90;;;;;;5013106;28;20437;-53
2023/10/24 03:59:38;;;;;;;11.13;6.40;;;10.80;99.90;;;;;;5012392;28;20471;-55
2023/10/24 04:02:05;;;;;;;12.27;6.87;;;10.80;99.90;;;;;;5011666;28;20471;-57
2023/10/24 04:04:32;;;;;;;12.33;5.97;;;10.80;99.90;;;;;;5023122;28;20556;-57
2023/10/24 04:06:59;;;;;;;12.17;6.60;;;10.80;99.90;;;;;;5020519;28;20503;-57
2023/10/24 04:09:25;;;;;;;8.10;5.40;;;10.80;99.90;;;;;;5012078;28;20542;-56
2023/10/24 04:11:52;;;;;;;8.70;5.97;;;10.80;99.90;;;;;;5012996;28;20506;-57
2023/10/24 04:14:20;;;;;;;19.30;6.60;;;10.80;99.90;;;;;;5012744;28;20989;-55
2023/10/24 04:16:46;;;;;;;11.23;7.20;;;10.80;99.90;;;;;;5012046;28;20464;-56
2023/10/24 04:19:13;;;;;;;9.10;6.33;;;10.80;99.90;;;;;;5011384;28;20538;-57
2023/10/24 04:21:40;;;;;;;7.83;5.80;;;10.80;99.90;;;;;;5008025;28;20459;-56
2023/10/24 04:24:07;;;;;;;11.43;6.50;;;10.80;99.90;;;;;;5012167;28;20507;-55
2023/10/24 04:26:34;;;;;;;11.57;6.70;;;10.80;99.90;;;;;;5012557;28;20458;-56
2023/10/24 04:29:01;;;;;;;17.53;8.13;;;10.80;99.90;;;;;;5010780;28;20990;-57
2023/10/24 04:31:29;;;;;;;11.50;7.00;;;10.80;99.90;;;;;;5007047;28;20459;-57
2023/10/24 04:33:55;;;;;;;12.30;6.60;;;10.80;99.90;;;;;;5006145;28;20480;-56
2023/10/24 04:36:22;;;;;;;12.00;6.63;;;10.80;99.90;;;;;;5012204;28;20616;-56
2023/10/24 04:38:48;;;;;;;18.90;7.17;;;10.80;99.90;;;;;;5012733;28;20491;-56
2023/10/24 04:41:15;;;;;;;13.47;7.07;;;10.80;99.90;;;;;;5011541;28;20510;-56
2023/10/24 04:43:41;;;;;;;16.03;7.40;;;10.80;99.90;;;;;;5010513;28;20522;-57
2023/10/24 04:46:09;;;;;;;12.00;6.60;;;10.80;99.90;;;;;;5009565;28;20905;-56
2023/10/24 04:48:37;;;;;;;10.83;6.50;;;10.70;99.90;;;;;;5018055;28;20487;-55
2023/10/24 04:51:10;;;;;;;10.83;7.20;;;10.70;99.90;;;;;;5011679;28;20487;-56
2023/10/24 04:53:37;;;;;;;11.53;6.33;;;10.60;99.90;;;;;;5012370;28;20938;-55
2023/10/24 04:56:03;;;;;;;12.13;6.93;;;10.60;99.90;;;;;;5011841;28;20478;-56
2023/10/24 04:58:30;;;;;;;12.70;7.80;;;10.60;99.90;;;;;;5010716;28;20523;-56
2023/10/24 05:00:57;;;;;;;12.03;7.73;;;10.60;99.90;;;;;;5012352;28;20506;-56
2023/10/24 05:03:23;;;;;;;16.83;7.73;;;10.60;99.90;;;;;;5019287;28;20517;-55
2023/10/24 05:05:51;;;;;;;12.23;7.97;;;10.60;99.90;;;;;;5021120;28;20524;-57
2023/10/24 05:08:18;;;;;;;12.10;7.63;;;10.50;99.90;;;;;;5012004;28;20471;-57
2023/10/24 05:10:44;;;;;;;12.83;7.27;;;10.50;99.90;;;;;;5001800;28;20964;-56
2023/10/24 05:13:11;;;;;;;14.33;7.50;;;10.60;99.90;;;;;;5011056;28;20957;-56
2023/10/24 05:15:38;;;;;;;12.20;6.90;;;10.50;99.90;;;;;;5012050;28;20937;-57
2023/10/24 05:18:05;;;;;;;12.10;7.57;;;10.50;99.90;;;;;;5012093;28;20929;-56
2023/10/24 05:20:31;;;;;;;13.00;7.03;;;10.50;99.90;;;;;;5011949;28;20456;-57
2023/10/24 05:22:59;;;;;;;13.23;7.97;;;10.50;99.90;;;;;;5016203;28;20952;-56
2023/10/24 05:25:26;;;;;;;14.80;8.27;;;10.50;99.90;;;;;;5015583;28;20447;-56
2023/10/24 05:27:52;;;;;;;13.63;8.60;;;10.50;99.90;;;;;;5016163;28;20471;-57
2023/10/24 05:30:19;;;;;;;13.67;8.03;;;10.50;99.90;;;;;;5012660;28;20569;-57
2023/10/24 05:32:46;;;;;;;17.37;8.37;;;10.50;99.90;;;;;;5023504;28;20863;-56
2023/10/24 05:35:12;;;;;;;9.73;8.23;;;10.50;99.90;;;;;;5014714;28;20961;-55
2023/10/24 05:37:39;;;;;;;12.27;8.00;;;10.50;99.90;;;;;;5015463;28;20892;-57
2023/10/24 05:40:08;;;;;;;9.93;7.60;;;10.50;99.90;;;;;;5015630;28;20460;-57
2023/10/24 05:42:36;;;;;;;12.60;7.73;;;10.50;99.90;;;;;;5014640;28;20471;-55
2023/10/24 05:45:02;;;;;;;12.00;8.20;;;10.40;99.90;;;;;;5015347;28;20447;-57
2023/10/24 05:47:29;;;;;;;14.87;8.60;;;10.40;99.90;;;;;;5015208;28;20945;-57
2023/10/24 05:49:55;;;;;;;12.63;8.37;;;10.40;99.90;;;;;;5019178;28;20522;-57
2023/10/24 05:52:22;;;;;;;14.03;8.40;;;10.40;99.90;;;;;;5031483;28;20450;-56
2023/10/24 05:54:49;;;;;;;13.20;8.87;;;10.40;99.90;;;;;;5034918;28;20941;-56
2023/10/24 05:57:16;;;;;;;12.17;8.50;;;10.40;99.90;;;;;;5025013;28;20554;-56
2023/10/24 05:59:43;;;;;;;20.33;9.00;;;10.40;99.90;;;;;;5022667;28;20522;-56
2023/10/24 06:02:10;;;;;;;15.63;9.47;;;10.40;99.90;;;;;;5015170;28;20541;-56
2023/10/24 06:04:36;;;;;;;11.80;9.10;;;10.40;99.90;;;;;;5013079;28;20459;-57
2023/10/24 06:07:03;;;;;;;15.20;9.00;;;10.40;99.90;;;;;;5015282;28;20443;-56
2023/10/24 06:09:29;;;;;;;15.17;8.90;;;10.40;99.90;;;;;;5015215;28;20487;-56
2023/10/24 06:11:56;;;;;;;14.93;8.47;;;10.40;99.90;;;;;;5014478;28;20510;-55
2023/10/24 06:14:24;;;;;;;20.40;8.47;;;10.40;99.90;;;;;;5013385;28;20490;-55
2023/10/24 06:16:50;;;;;;;14.27;9.70;;;10.50;99.90;;;;;;5014863;28;20467;-56
2023/10/24 06:19:17;;;;;;;17.87;12.90;;;10.40;99.90;;;;;;5014123;28;20500;-57
2023/10/24 06:21:43;;;;;;;24.20;21.17;;;10.40;99.90;;;;;;5015140;28;20483;-57
2023/10/24 06:24:10;;;;;;;25.20;13.20;;;10.40;99.90;;;;;;5016134;28;20493;-56
2023/10/24 06:26:37;;;;;;;23.63;14.10;;;10.40;99.90;;;;;;5015877;28;20502;-55
2023/10/24 06:29:03;;;;;;;15.33;10.40;;;10.40;99.90;;;;;;5015672;28;20519;-57
2023/10/24 06:31:31;;;;;;;12.20;8.47;;;10.40;99.90;;;;;;5012314;28;20945;-58
2023/10/24 06:33:59;;;;;;;15.30;7.97;;;10.50;99.90;;;;;;5022904;28;20518;-56
2023/10/24 06:36:26;;;;;;;14.60;7.40;;;10.50;99.90;;;;;;5015739;28;20943;-56
2023/10/24 06:38:52;;;;;;;10.90;8.07;;;10.40;99.90;;;;;;5018304;28;20463;-57
2023/10/24 06:41:19;;;;;;;17.70;8.67;;;10.50;99.90;;;;;;5017110;28;20452;-57
2023/10/24 06:43:46;;;;;;;17.33;10.17;;;10.40;99.90;;;;;;5016082;28;20907;-56
2023/10/24 06:46:13;;;;;;;23.43;9.73;;;10.50;99.90;;;;;;5022846;28;20468;-57
2023/10/24 06:48:41;;;;;;;17.30;9.13;;;10.50;99.90;;;;;;5016279;28;20480;-58
2023/10/24 06:51:07;;;;;;;21.90;11.27;;;10.50;99.90;;;;;;5041037;28;20478;-57
2023/10/24 06:53:34;;;;;;;20.90;9.80;;;10.50;99.90;;;;;;5027270;28;20447;-58
2023/10/24 06:56:01;;;;;;;15.10;9.37;;;10.50;99.90;;;;;;5023173;28;20447;-58
2023/10/24 06:58:28;;;;;;;12.17;9.67;;;10.50;99.90;;;;;;5017439;28;20480;-58
2023/10/24 07:00:55;;;;;;;18.10;11.40;;;10.50;99.90;;;;;;5015724;28;20478;-62
2023/10/24 07:03:22;;;;;;;24.53;11.50;;;10.50;99.90;;;;;;5013981;28;20460;-56
2023/10/24 07:05:53;;;;;;;15.30;10.23;;;10.50;99.90;;;;;;4998655;28;20495;-57
2023/10/24 07:08:20;;;;;;;15.60;9.90;;;10.50;99.90;;;;;;5010468;28;20518;-58
2023/10/24 07:10:47;;;;;;;16.23;10.10;;;10.50;99.90;;;;;;5013735;28;20533;-57
2023/10/24 07:13:14;;;;;;;15.60;9.40;;;10.60;99.90;;;;;;5013930;28;20444;-57
2023/10/24 07:15:41;;;;;;;17.53;9.50;;;10.60;99.90;;;;;;5014001;28;20444;-57
2023/10/24 07:18:07;;;;;;;22.67;9.07;;;10.60;99.90;;;;;;5012204;28;20537;-57
2023/10/24 07:20:36;;;;;;;13.63;8.93;;;10.60;99.90;;;;;;5013583;28;20479;-57
2023/10/24 07:23:04;;;;;;;14.77;11.43;;;10.70;99.90;;;;;;5011925;28;20521;-57
2023/10/24 07:25:30;;;;;;;24.03;11.23;;;10.70;99.90;;;;;;5013303;28;20475;-58
2023/10/24 07:27:57;;;;;;;14.70;10.67;;;10.70;99.90;;;;;;5013585;28;20439;-58
2023/10/24 07:30:24;;;;;;;21.70;11.27;;;10.70;99.90;;;;;;5008683;28;20491;-57
2023/10/24 07:32:53;;;;;;;17.23;9.80;;;10.70;99.90;;;;;;5010472;28;20977;-56
2023/10/24 07:35:20;;;;;;;19.60;11.17;;;10.70;99.90;;;;;;5010507;28;20479;-57
2023/10/24 07:37:47;;;;;;;18.03;10.77;;;10.70;99.90;;;;;;5012376;28;20487;-57
2023/10/24 07:40:15;;;;;;;16.30;10.80;;;10.70;99.90;;;;;;5012612;28;20467;-58
2023/10/24 07:42:41;;;;;;;21.20;11.73;;;10.80;99.90;;;;;;5013148;28;20467;-56
2023/10/24 07:45:11;;;;;;;21.40;12.57;;;10.80;99.90;;;;;;5010316;28;20503;-56
2023/10/24 07:47:37;;;;;;;16.43;10.77;;;10.80;99.90;;;;;;5012436;28;20946;-57
2023/10/24 07:50:04;;;;;;;14.87;10.57;;;10.80;99.90;;;;;;5012837;28;20488;-57
2023/10/24 07:52:31;;;;;;;26.27;13.27;;;10.80;99.90;;;;;;5012704;28;20478;-56
2023/10/24 07:54:57;;;;;;;14.97;11.87;;;10.90;99.90;;;;;;5011202;28;20492;-57
2023/10/24 07:57:25;;;;;;;16.07;10.53;;;10.90;99.90;;;;;;5012734;28;20440;-57
2023/10/24 07:59:52;;;;;;;22.23;11.67;;;10.90;99.90;;;;;;5012976;28;20467;-57
2023/10/24 08:02:18;;;;;;;19.50;11.73;;;10.90;99.90;;;;;;5011233;28;20498;-56
2023/10/24 08:04:45;;;;;;;22.50;13.80;;;10.90;99.90;;;;;;5012762;28;20460;-57
2023/10/24 08:07:12;;;;;;;15.50;11.10;;;11.00;99.90;;;;;;5012754;28;20440;-56
2023/10/24 08:09:38;;;;;;;14.67;10.20;;;11.00;99.90;;;;;;5012480;28;20526;-57
2023/10/24 08:12:05;;;;;;;13.73;10.00;;;11.00;99.90;;;;;;5009861;28;20835;-57
2023/10/24 08:14:33;;;;;;;13.10;9.30;;;11.10;99.90;;;;;;5012174;28;20934;-57
2023/10/24 08:17:00;;;;;;;16.93;10.13;;;11.10;99.90;;;;;;5010664;28;20491;-58
2023/10/24 08:19:25;;;;;;;14.50;9.70;;;11.10;99.90;;;;;;5012446;28;21005;-58
2023/10/24 08:21:52;;;;;;;14.20;9.90;;;11.20;99.90;;;;;;5012253;28;20529;-56
2023/10/24 08:24:19;;;;;;;17.07;9.70;;;11.10;99.90;;;;;;5012446;28;20206;-57
2023/10/24 08:26:45;;;;;;;13.47;10.13;;;11.20;99.90;;;;;;5012581;28;20483;-57
2023/10/24 08:29:12;;;;;;;15.87;10.40;;;11.20;99.90;;;;;;5010752;28;20534;-57
2023/10/24 08:31:40;;;;;;;16.93;11.67;;;11.20;99.90;;;;;;5009008;28;20480;-57
2023/10/24 08:34:06;;;;;;;18.77;11.90;;;11.20;99.90;;;;;;5011436;28;20495;-58
2023/10/24 08:36:33;;;;;;;15.70;10.73;;;11.30;99.90;;;;;;5012262;28;20455;-57
2023/10/24 08:38:59;;;;;;;16.50;11.70;;;11.30;99.90;;;;;;5012217;28;20498;-58
2023/10/24 08:41:26;;;;;;;13.93;11.40;;;11.30;99.90;;;;;;5012251;28;20486;-58
2023/10/24 08:43:53;;;;;;;15.57;10.20;;;11.30;99.90;;;;;;5011619;28;21012;-57
2023/10/24 08:46:21;;;;;;;16.47;10.63;;;11.30;99.90;;;;;;5009738;28;20533;-58
2023/10/24 08:48:50;;;;;;;16.73;10.50;;;11.30;99.90;;;;;;5010311;28;20502;-57
2023/10/24 08:51:16;;;;;;;16.97;10.57;;;11.40;99.90;;;;;;5011835;28;20904;-57
2023/10/24 08:53:43;;;;;;;16.60;12.10;;;11.30;99.90;;;;;;5009944;28;20609;-56
2023/10/24 08:56:10;;;;;;;16.90;12.90;;;11.40;99.90;;;;;;5010941;28;20487;-58
2023/10/24 08:58:39;;;;;;;25.27;15.70;;;11.40;99.90;;;;;;5011915;28;20541;-58
2023/10/24 09:01:07;;;;;;;29.43;12.10;;;11.40;99.90;;;;;;5010297;28;20459;-58
2023/10/24 09:03:35;;;;;;;14.27;10.50;;;11.50;99.90;;;;;;5012070;28;20677;-57
2023/10/24 09:06:03;;;;;;;22.23;15.87;;;11.50;73.00;;;;;;5010328;28;20495;-58
2023/10/24 09:08:29;;;;;;;19.93;12.80;;;11.50;82.50;;;;;;5012069;28;20502;-57
2023/10/24 09:10:56;;;;;;;25.23;15.03;;;11.50;25.60;;;;;;5011239;28;20515;-56
2023/10/24 09:13:24;;;;;;;40.90;26.40;;;11.70;22.70;;;;;;5012119;28;20205;-56
2023/10/24 09:16:06;;;;;;;23.10;14.97;;;11.70;22.30;;;;;;5011097;28;20992;-57
2023/10/24 09:18:35;;;;;;;14.30;11.50;;;11.70;20.60;;;;;;5007650;28;20566;-57
2023/10/24 09:21:04;;;;;;;27.43;15.20;;;11.70;32.00;;;;;;5011501;28;20575;-57
2023/10/24 09:23:33;;;;;;;27.97;16.20;;;11.80;30.20;;;;;;5012108;28;20440;-56
2023/10/24 09:26:02;;;;;;;19.40;13.57;;;11.80;37.40;;;;;;5011715;28;20788;-56
2023/10/24 09:28:29;;;;;;;17.60;12.37;;;11.90;33.60;;;;;;5011798;28;20514;-56
2023/10/24 09:30:57;;;;;;;17.63;11.67;;;11.90;36.50;;;;;;5008885;28;20491;-57
2023/10/24 09:33:25;;;;;;;15.97;11.10;;;11.90;46.60;;;;;;5010023;28;20470;-56
2023/10/24 09:35:52;;;;;;;17.67;11.23;;;11.90;44.50;;;;;;5011719;28;20468;-57
2023/10/24 09:38:21;;;;;;;16.63;12.37;;;12.00;41.80;;;;;;5012032;28;20796;-57
2023/10/24 09:40:47;;;;;;;25.73;13.07;;;12.10;40.50;;;;;;5011806;28;20461;-57
2023/10/24 09:43:22;;;;;;;23.70;13.47;;;12.10;42.10;;;;;;5011740;28;20502;-57
2023/10/24 09:45:50;;;;;;;16.27;11.47;;;12.10;45.70;;;;;;5009337;28;20463;-58
2023/10/24 09:48:17;;;;;;;24.57;14.10;;;12.10;47.50;;;;;;5010357;28;20475;-56
2023/10/24 09:50:44;;;;;;;16.83;10.77;;;12.10;50.90;;;;;;5011206;28;20475;-57
2023/10/24 09:53:12;;;;;;;20.53;12.13;;;12.00;55.60;;;;;;5011641;28;20942;-57
2023/10/24 09:55:41;;;;;;;24.23;13.63;;;12.00;49.80;;;;;;5011489;28;20497;-57
2023/10/24 09:58:09;;;;;;;26.17;12.93;;;12.10;46.40;;;;;;5011473;28;20543;-58
2023/10/24 10:00:36;;;;;;;19.10;13.10;;;12.00;54.40;;;;;;5010128;28;20460;-55
2023/10/24 10:03:17;;;;;;;19.97;13.77;;;12.10;50.10;;;;;;4979609;28;20458;-55
2023/10/24 10:05:45;;;;;;;20.70;11.80;;;12.10;53.30;;;;;;5009371;28;20864;-55
2023/10/24 10:08:15;;;;;;;18.70;11.23;;;12.10;52.60;;;;;;5011477;28;20463;-54
2023/10/24 10:10:46;;;;;;;19.70;11.03;;;12.20;53.10;;;;;;5015295;28;20514;-54
2023/10/24 10:13:16;;;;;;;17.97;10.60;;;12.20;51.70;;;;;;5014799;28;20465;-54
2023/10/24 10:15:56;;;;;;;19.30;11.80;;;12.20;49.50;;;;;;5014913;28;20444;-53
2023/10/24 10:18:43;;;;;;;16.07;11.87;;;12.20;49.60;;;;;;5015096;28;20899;-53
2023/10/24 10:21:20;;;;;;;20.07;11.37;;;12.10;54.80;;;;;;5009430;28;20514;-54
2023/10/24 10:24:26;;;;;;;19.77;11.10;;;12.20;53.50;;;;;;5019272;28;20932;-53
2023/10/24 10:27:12;;;;;;;17.60;11.87;;;12.20;53.10;;;;;;5014497;28;20435;-53
2023/10/24 10:29:51;;;;;;;16.90;11.93;;;12.30;50.30;;;;;;5014234;28;20511;-54
2023/10/24 10:32:29;;;;;;;16.07;10.77;;;12.20;59.00;;;;;;5010248;28;20515;-54
2023/10/24 10:34:55;;;;;;;25.63;11.53;;;12.30;53.60;;;;;;5014577;28;20463;-54
2023/10/24 10:37:22;;;;;;;18.80;11.20;;;12.40;51.90;;;;;;5014927;28;20495;-54
2023/10/24 10:40:24;;;;;;;19.43;11.63;;;12.40;53.00;;;;;;5014711;28;20579;-54
2023/10/24 10:42:52;;;;;;;22.73;10.90;;;12.30;55.50;;;;;;5012875;28;20467;-53
2023/10/24 10:45:29;;;;;;;15.03;10.67;;;12.40;52.20;;;;;;5014485;28;20455;-55
2023/10/24 10:47:58;;;;;;;18.07;11.93;;;12.30;56.70;;;;;;5010152;28;20455;-54
2023/10/24 10:50:27;;;;;;;15.90;11.50;;;12.30;52.00;;;;;;5010219;28;20475;-55
2023/10/24 10:53:02;;;;;;;14.00;10.77;;;12.30;49.10;;;;;;5014417;28;20459;-54
2023/10/24 10:55:34;;;;;;;14.67;10.23;;;12.40;52.90;;;;;;5014443;28;20467;-54
2023/10/24 10:58:23;;;;;;;17.67;12.43;;;12.30;48.80;;;;;;5013771;28;20470;-55
2023/10/24 11:01:02;;;;;;;20.90;13.37;;;12.40;48.80;;;;;;5014566;28;20444;-54
2023/10/24 11:03:38;;;;;;;16.63;11.77;;;12.40;52.70;;;;;;5012692;28;20482;-54
2023/10/24 11:06:14;;;;;;;19.27;11.90;;;12.40;56.20;;;;;;5012876;28;20485;-54
2023/10/24 11:08:41;;;;;;;18.00;11.30;;;12.50;51.40;;;;;;5014138;28;20474;-53
2023/10/24 11:11:10;;;;;;;15.97;11.20;;;12.50;49.40;;;;;;5013928;28;20484;-53
2023/10/24 11:13:40;;;;;;;18.90;10.70;;;12.50;55.00;;;;;;5013770;28;20470;-53
2023/10/24 11:16:08;;;;;;;16.70;10.53;;;12.60;53.20;;;;;;5012001;28;20470;-53
2023/10/24 11:18:36;;;;;;;19.60;11.53;;;12.70;53.50;;;;;;5013681;28;20886;-55
2023/10/24 11:21:04;;;;;;;15.47;10.57;;;12.80;53.00;;;;;;5013094;28;20495;-55
2023/10/24 11:23:32;;;;;;;19.20;11.20;;;12.80;59.60;;;;;;5009975;28;20467;-53
2023/10/24 11:25:59;;;;;;;17.70;12.10;;;12.80;59.40;;;;;;5013921;28;20444;-54
2023/10/24 11:28:27;;;;;;;20.13;10.73;;;12.80;65.90;;;;;;5010450;28;20550;-54
2023/10/24 11:30:55;;;;;;;15.23;11.13;;;12.80;65.80;;;;;;5013379;28;20491;-54
2023/10/24 11:33:22;;;;;;;20.37;11.57;;;12.80;64.10;;;;;;5014347;28;20529;-55
2023/10/24 11:35:49;;;;;;;18.97;10.93;;;12.80;70.40;;;;;;5026711;28;20934;-55
2023/10/24 11:38:16;;;;;;;18.43;10.90;;;12.90;69.20;;;;;;5022468;28;20464;-54
2023/10/24 11:40:46;;;;;;;19.00;10.27;;;12.80;66.80;;;;;;5023890;28;20491;-55
2023/10/24 11:43:14;;;;;;;16.07;11.10;;;12.80;61.90;;;;;;5026954;28;20546;-54
2023/10/24 11:45:41;;;;;;;20.23;12.43;;;12.80;60.30;;;;;;5024862;28;20432;-54
2023/10/24 11:48:10;;;;;;;25.10;10.57;;;12.90;61.80;;;;;;5012893;28;20558;-54
2023/10/24 11:50:38;;;;;;;13.17;10.23;;;12.90;56.20;;;;;;5013586;28;20991;-60
2023/10/24 11:53:05;;;;;;;17.93;11.33;;;12.90;51.50;;;;;;5013122;28;20545;-60
2023/10/24 11:55:32;;;;;;;15.40;11.57;;;12.90;51.20;;;;;;5011618;28;20501;-59
2023/10/24 11:57:59;;;;;;;17.33;10.97;;;12.90;53.00;;;;;;5004866;28;20499;-59
2023/10/24 12:00:29;;;;;;;23.97;11.27;;;12.80;49.70;;;;;;5011108;28;20471;-58
2023/10/24 12:02:55;;;;;;;12.67;9.80;;;12.90;51.20;;;;;;5012878;28;20525;-60
2023/10/24 12:05:23;;;;;;;18.43;10.97;;;12.90;48.40;;;;;;5011926;28;20460;-58
2023/10/24 12:07:53;;;;;;;22.53;9.60;;;12.90;47.00;;;;;;5010580;28;20499;-59
2023/10/24 12:10:20;;;;;;;21.30;10.67;;;12.90;46.00;;;;;;5012661;28;20526;-59
2023/10/24 12:12:46;;;;;;;16.90;11.60;;;12.90;44.30;;;;;;5012055;28;20487;-59
2023/10/24 12:15:15;;;;;;;16.73;10.30;;;12.90;44.30;;;;;;5012565;28;20476;-59
2023/10/24 12:17:45;;;;;;;17.83;10.40;;;12.90;44.20;;;;;;5012934;28;20460;-59
2023/10/24 12:20:12;;;;;;;21.43;10.90;;;12.90;43.40;;;;;;5012435;28;20511;-60
2023/10/24 12:22:43;;;;;;;16.60;11.23;;;13.00;42.10;;;;;;5012672;28;20456;-58
2023/10/24 12:25:09;;;;;;;22.77;10.60;;;12.90;41.20;;;;;;5011281;28;20463;-60
2023/10/24 12:27:36;;;;;;;19.37;11.17;;;12.90;47.70;;;;;;5011611;28;20812;-59
2023/10/24 12:30:03;;;;;;;21.13;11.63;;;12.90;45.80;;;;;;5012155;28;20984;-57
2023/10/24 12:32:30;;;;;;;19.70;11.00;;;12.80;44.40;;;;;;5010603;28;20487;-59
2023/10/24 12:34:57;;;;;;;16.07;10.37;;;12.80;42.40;;;;;;5012602;28;20444;-59
2023/10/24 12:37:23;;;;;;;14.57;11.50;;;12.70;37.00;;;;;;5011275;28;20870;-58
2023/10/24 12:39:53;;;;;;;18.40;11.23;;;12.70;26.20;;;;;;5012555;28;20475;-58